Time;durP1;ratioP1;P1;durP2;ratioP2;P2;SDS_P1;SDS_P2;PMS_P1;PMS_P2;Temp;Humidity;BMP_temperature;BMP_pressure;BME280_temperature;BME280_humidity;BME280_pressure;Samples;Min_cycle;Max_cycle;Signal;HPM_P1;HPM_P2
2023/05/15 00:02:19;;;;;;;18.65;4.07;;;37.10;24.80;;;;;;5049852;28;20032;-62
2023/05/15 00:04:45;;;;;;;53.40;12.40;;;37.00;24.90;;;;;;5050294;28;20059;-64
2023/05/15 00:07:12;;;;;;;21.13;4.07;;;36.90;24.80;;;;;;5053023;28;20035;-64
2023/05/15 00:09:38;;;;;;;29.27;4.18;;;36.80;24.70;;;;;;5052720;28;20779;-64
2023/05/15 00:12:05;;;;;;;24.90;4.38;;;36.80;24.70;;;;;;5046139;28;20037;-66
2023/05/15 00:14:31;;;;;;;16.77;4.10;;;36.70;24.60;;;;;;5050155;28;20034;-65
2023/05/15 00:16:58;;;;;;;29.52;4.65;;;36.60;24.40;;;;;;5047931;28;20036;-63
2023/05/15 00:19:24;;;;;;;21.67;4.60;;;36.60;24.20;;;;;;5050668;28;20448;-65
2023/05/15 00:21:51;;;;;;;19.98;3.65;;;36.50;24.40;;;;;;5049730;28;20033;-65
2023/05/15 00:24:17;;;;;;;21.73;4.45;;;36.50;24.70;;;;;;5049808;28;20074;-64
2023/05/15 00:26:44;;;;;;;15.52;3.60;;;36.40;24.30;;;;;;5047388;28;20021;-64
2023/05/15 00:29:10;;;;;;;17.92;3.53;;;36.40;24.20;;;;;;5047266;28;20040;-64
2023/05/15 00:31:36;;;;;;;14.25;3.10;;;36.40;23.80;;;;;;5049343;28;20122;-63
2023/05/15 00:34:03;;;;;;;18.77;3.47;;;36.40;23.60;;;;;;5049731;28;20199;-66
2023/05/15 00:36:30;;;;;;;15.40;3.47;;;36.30;23.30;;;;;;5050970;28;20036;-67
2023/05/15 00:38:56;;;;;;;21.73;3.53;;;36.20;23.10;;;;;;5054189;28;20117;-65
2023/05/15 00:41:23;;;;;;;32.22;4.32;;;36.20;23.10;;;;;;5055377;28;20021;-66
2023/05/15 00:43:51;;;;;;;29.88;5.53;;;36.10;23.50;;;;;;5048104;28;20045;-67
2023/05/15 00:46:18;;;;;;;24.83;4.93;;;36.10;24.50;;;;;;5050802;28;20037;-67
2023/05/15 00:48:47;;;;;;;16.58;4.43;;;36.00;24.50;;;;;;5044764;28;20036;-64
2023/05/15 00:51:13;;;;;;;22.98;4.20;;;35.90;24.60;;;;;;5051779;28;20059;-64
2023/05/15 00:53:41;;;;;;;11.05;3.85;;;35.90;24.70;;;;;;5045837;28;20044;-66
2023/05/15 00:56:14;;;;;;;23.77;4.57;;;35.80;24.50;;;;;;5049418;28;20035;-66
2023/05/15 00:58:41;;;;;;;20.88;4.72;;;35.80;24.70;;;;;;5047810;28;20143;-65
2023/05/15 01:01:08;;;;;;;18.73;4.72;;;35.70;25.40;;;;;;5058556;28;20034;-66
2023/05/15 01:03:34;;;;;;;19.52;4.78;;;35.60;25.70;;;;;;5048012;28;20048;-67
2023/05/15 01:06:01;;;;;;;19.73;4.63;;;35.60;25.50;;;;;;5048702;28;20108;-66
2023/05/15 01:08:51;;;;;;;14.90;4.38;;;35.50;25.50;;;;;;5048477;28;20025;-67
2023/05/15 01:11:19;;;;;;;20.17;4.80;;;35.50;25.90;;;;;;5046863;28;20036;-67
2023/05/15 01:13:46;;;;;;;23.77;4.55;;;35.50;26.30;;;;;;5047481;28;20110;-67
2023/05/15 01:16:12;;;;;;;19.92;5.25;;;35.40;26.10;;;;;;5048468;28;20528;-67
2023/05/15 01:18:39;;;;;;;21.33;4.68;;;35.40;26.30;;;;;;5058481;28;20036;-66
2023/05/15 01:21:06;;;;;;;28.05;4.53;;;35.30;26.10;;;;;;5051849;28;20052;-68
2023/05/15 01:24:06;;;;;;;20.55;5.60;;;35.20;26.40;;;;;;5055962;28;20021;-66
2023/05/15 01:27:09;;;;;;;26.23;5.18;;;35.20;26.70;;;;;;5048183;28;20013;-65
2023/05/15 01:29:57;;;;;;;27.33;5.28;;;35.20;26.50;;;;;;5047356;28;20481;-67
2023/05/15 01:32:33;;;;;;;17.63;4.20;;;35.30;26.40;;;;;;5047616;28;20029;-66
2023/05/15 01:35:16;;;;;;;17.98;4.47;;;35.40;26.50;;;;;;5048489;28;20370;-67
2023/05/15 01:37:48;;;;;;;31.65;4.80;;;35.30;26.60;;;;;;5047895;28;20025;-66
2023/05/15 01:40:18;;;;;;;21.73;4.47;;;35.40;26.70;;;;;;5047401;28;20406;-64
2023/05/15 01:42:54;;;;;;;26.05;4.68;;;35.20;27.00;;;;;;5046665;28;20029;-67
2023/05/15 01:45:23;;;;;;;23.25;3.95;;;35.10;27.30;;;;;;5046077;28;20021;-70
2023/05/15 01:47:52;;;;;;;23.88;4.55;;;35.00;27.50;;;;;;5046855;28;20108;-68
2023/05/15 01:50:20;;;;;;;29.02;5.63;;;35.00;27.50;;;;;;5047737;28;20025;-67
2023/05/15 01:52:54;;;;;;;19.23;4.80;;;35.30;27.40;;;;;;5049192;28;20024;-66
2023/05/15 01:55:24;;;;;;;26.70;5.63;;;35.90;26.50;;;;;;5042757;28;20028;-68
2023/05/15 01:57:53;;;;;;;31.10;5.50;;;36.00;26.20;;;;;;5047918;28;20059;-66
2023/05/15 02:00:20;;;;;;;37.78;5.68;;;35.70;26.20;;;;;;5047710;28;20032;-65
2023/05/15 02:02:48;;;;;;;32.20;5.55;;;35.30;26.80;;;;;;5049371;28;20083;-68
2023/05/15 02:05:15;;;;;;;32.88;5.38;;;34.90;27.10;;;;;;5048448;28;20440;-67
2023/05/15 02:07:45;;;;;;;38.53;5.47;;;34.80;27.30;;;;;;5049510;28;20033;-66
2023/05/15 02:10:13;;;;;;;26.67;4.68;;;34.60;27.40;;;;;;5048168;28;20029;-66
2023/05/15 02:12:41;;;;;;;21.88;4.75;;;34.20;27.40;;;;;;5051042;28;20056;-64
2023/05/15 02:15:12;;;;;;;28.98;4.55;;;34.10;27.60;;;;;;5047387;28;20115;-66
2023/05/15 02:17:38;;;;;;;27.42;4.97;;;33.80;27.70;;;;;;5046393;28;20272;-66
2023/05/15 02:20:06;;;;;;;23.25;5.20;;;33.70;28.00;;;;;;5049824;28;20036;-66
2023/05/15 02:22:33;;;;;;;26.42;4.47;;;33.60;28.40;;;;;;5050482;28;21299;-65
2023/05/15 02:24:59;;;;;;;17.05;4.20;;;33.50;28.80;;;;;;5050407;28;20155;-66
2023/05/15 02:27:46;;;;;;;20.30;4.47;;;33.40;29.10;;;;;;5050581;28;20023;-64
2023/05/15 02:30:55;;;;;;;21.77;6.07;;;33.30;29.30;;;;;;5050565;28;20115;-68
2023/05/15 02:33:44;;;;;;;28.88;12.43;;;33.10;29.50;;;;;;5048950;28;20044;-66
2023/05/15 02:36:18;;;;;;;17.67;4.05;;;33.00;29.50;;;;;;5049380;28;20464;-66
2023/05/15 02:38:48;;;;;;;27.65;5.13;;;32.90;29.60;;;;;;5050353;28;20072;-67
2023/05/15 02:41:15;;;;;;;27.25;4.75;;;32.80;29.60;;;;;;5055027;28;20032;-65
2023/05/15 02:43:42;;;;;;;24.58;4.82;;;32.70;29.70;;;;;;5037205;28;20052;-68
2023/05/15 02:46:11;;;;;;;28.58;5.00;;;32.60;29.50;;;;;;5049460;28;20095;-66
2023/05/15 02:48:41;;;;;;;24.88;5.47;;;32.50;29.50;;;;;;5051919;28;20041;-66
2023/05/15 02:51:09;;;;;;;27.10;4.90;;;32.40;29.50;;;;;;5048098;28;20138;-66
2023/05/15 02:53:41;;;;;;;15.77;4.95;;;32.30;29.50;;;;;;5049042;28;20067;-65
2023/05/15 02:56:08;;;;;;;24.40;4.72;;;32.30;29.60;;;;;;5055170;28;20401;-66
2023/05/15 02:58:36;;;;;;;25.60;5.93;;;32.10;29.60;;;;;;5049128;28;20029;-68
2023/05/15 03:01:03;;;;;;;21.70;4.60;;;32.10;29.60;;;;;;5048323;28;20052;-66
2023/05/15 03:03:33;;;;;;;25.40;5.32;;;31.90;29.70;;;;;;5031650;28;20080;-64
2023/05/15 03:06:02;;;;;;;31.10;5.30;;;31.80;29.90;;;;;;5049373;28;20029;-66
2023/05/15 03:08:29;;;;;;;25.88;5.45;;;31.70;29.80;;;;;;5050569;28;20215;-63
2023/05/15 03:10:55;;;;;;;22.83;4.28;;;31.70;29.90;;;;;;5049519;28;20063;-66
2023/05/15 03:13:25;;;;;;;41.13;5.65;;;31.50;30.00;;;;;;5050212;28;20027;-65
2023/05/15 03:15:52;;;;;;;23.05;5.38;;;31.50;30.10;;;;;;5049481;28;20051;-67
2023/05/15 03:18:18;;;;;;;32.35;5.70;;;31.50;30.10;;;;;;5050618;28;20042;-66
2023/05/15 03:20:46;;;;;;;35.28;6.32;;;31.40;30.20;;;;;;5049404;28;20420;-65
2023/05/15 03:23:13;;;;;;;24.73;6.22;;;31.30;30.60;;;;;;5050083;28;20063;-65
2023/05/15 03:25:39;;;;;;;36.72;6.78;;;31.20;31.30;;;;;;5049195;28;20090;-67
2023/05/15 03:28:05;;;;;;;31.05;6.30;;;31.20;30.80;;;;;;5049135;28;20060;-67
2023/05/15 03:30:32;;;;;;;25.15;6.13;;;31.10;30.90;;;;;;5049618;28;20059;-64
2023/05/15 03:33:02;;;;;;;29.00;6.80;;;31.00;30.80;;;;;;5049252;28;20138;-64
2023/05/15 03:35:32;;;;;;;23.27;5.82;;;31.00;31.10;;;;;;5050906;28;20298;-67
2023/05/15 03:37:58;;;;;;;32.83;7.10;;;31.00;31.30;;;;;;5050302;28;20361;-66
2023/05/15 03:40:25;;;;;;;22.10;5.43;;;30.90;31.40;;;;;;5049530;28;20439;-65
2023/05/15 03:42:52;;;;;;;33.58;6.50;;;30.80;31.50;;;;;;5049923;28;20036;-68
2023/05/15 03:45:19;;;;;;;37.13;7.60;;;30.70;31.70;;;;;;5050170;28;20028;-67
2023/05/15 03:47:47;;;;;;;39.28;8.27;;;30.70;32.00;;;;;;5049633;28;20024;-64
2023/05/15 03:50:13;;;;;;;38.30;7.63;;;30.60;32.10;;;;;;5052526;28;20112;-65
2023/05/15 03:52:40;;;;;;;51.08;7.55;;;30.50;32.40;;;;;;5034641;28;20565;-65
2023/05/15 03:55:06;;;;;;;32.20;6.40;;;30.30;32.70;;;;;;5048459;28;20095;-66
2023/05/15 03:57:34;;;;;;;31.77;6.00;;;30.30;32.80;;;;;;5049044;28;20442;-65
2023/05/15 04:00:02;;;;;;;40.78;5.35;;;30.20;33.00;;;;;;5049925;28;20473;-66
2023/05/15 04:02:29;;;;;;;23.80;4.30;;;30.10;32.70;;;;;;5048835;28;20032;-66
2023/05/15 04:04:55;;;;;;;25.65;4.70;;;30.10;32.90;;;;;;5048302;28;20106;-66
2023/05/15 04:07:23;;;;;;;24.20;4.43;;;30.00;33.50;;;;;;5059299;28;20505;-65
2023/05/15 04:09:49;;;;;;;21.95;4.93;;;30.00;34.20;;;;;;5054551;28;20062;-63
2023/05/15 04:12:16;;;;;;;20.15;5.22;;;29.90;34.60;;;;;;5047939;28;20746;-66
2023/05/15 04:14:42;;;;;;;21.25;3.92;;;29.80;35.00;;;;;;5049778;28;20049;-65
2023/05/15 04:17:12;;;;;;;16.23;4.10;;;29.70;34.90;;;;;;5048683;28;20066;-65
2023/05/15 04:19:39;;;;;;;16.58;4.03;;;29.80;35.20;;;;;;5053981;28;20043;-66
2023/05/15 04:22:05;;;;;;;21.10;5.20;;;29.80;35.40;;;;;;5049577;28;20056;-65
2023/05/15 04:24:32;;;;;;;16.10;3.85;;;29.70;35.60;;;;;;5048362;28;20094;-67
2023/05/15 04:26:58;;;;;;;21.13;4.57;;;29.60;36.00;;;;;;5048494;28;20420;-66
2023/05/15 04:29:25;;;;;;;26.70;4.78;;;29.50;36.30;;;;;;5048181;28;20066;-65
2023/05/15 04:31:51;;;;;;;19.27;4.78;;;29.50;36.10;;;;;;5049031;28;20051;-64
2023/05/15 04:34:17;;;;;;;24.65;4.85;;;29.40;36.20;;;;;;5048482;28;20043;-65
2023/05/15 04:36:44;;;;;;;28.98;5.57;;;29.30;36.20;;;;;;5048745;28;20046;-65
2023/05/15 04:39:11;;;;;;;23.98;5.10;;;29.30;36.30;;;;;;5048029;28;20058;-66
2023/05/15 04:41:37;;;;;;;33.33;6.40;;;29.20;36.30;;;;;;5047320;28;20517;-65
2023/05/15 04:44:04;;;;;;;34.33;5.82;;;29.20;36.40;;;;;;5048208;28;20598;-64
2023/05/15 04:46:33;;;;;;;35.47;6.93;;;29.10;36.60;;;;;;5048374;28;20121;-66
2023/05/15 04:49:00;;;;;;;28.33;6.22;;;29.10;36.90;;;;;;5047413;28;20045;-64
2023/05/15 04:51:40;;;;;;;29.50;7.85;;;29.00;36.90;;;;;;5049411;28;20094;-65
2023/05/15 04:54:07;;;;;;;28.40;6.45;;;29.00;37.20;;;;;;5048075;28;20043;-67
2023/05/15 04:56:33;;;;;;;26.73;6.82;;;28.90;37.50;;;;;;5049125;28;20087;-65
2023/05/15 04:59:00;;;;;;;27.55;6.63;;;28.90;37.60;;;;;;5049740;28;20070;-65
2023/05/15 05:01:28;;;;;;;23.70;6.43;;;28.80;37.90;;;;;;5050056;28;20109;-65
2023/05/15 05:03:55;;;;;;;23.70;6.40;;;28.70;38.10;;;;;;5047164;28;20079;-65
2023/05/15 05:06:22;;;;;;;38.63;6.70;;;28.60;38.40;;;;;;5047834;28;20066;-65
2023/05/15 05:08:49;;;;;;;34.22;8.35;;;28.50;39.00;;;;;;5047693;28;20043;-65
2023/05/15 05:11:15;;;;;;;28.15;7.40;;;28.40;39.00;;;;;;5047989;28;20056;-64
2023/05/15 05:13:42;;;;;;;24.80;7.53;;;28.30;39.40;;;;;;5048132;28;20432;-61
2023/05/15 05:16:08;;;;;;;30.90;7.30;;;28.30;39.70;;;;;;5049413;28;20054;-64
2023/05/15 05:18:35;;;;;;;29.38;7.15;;;28.20;40.30;;;;;;5046743;28;20044;-67
2023/05/15 05:21:02;;;;;;;30.40;6.50;;;28.10;40.30;;;;;;5046615;28;20106;-66
2023/05/15 05:23:29;;;;;;;28.00;6.43;;;28.00;40.80;;;;;;5048163;28;20131;-67
2023/05/15 05:25:56;;;;;;;24.10;6.63;;;27.90;41.60;;;;;;5050056;28;21408;-65
2023/05/15 05:28:22;;;;;;;25.88;5.13;;;27.80;42.10;;;;;;5048122;28;20061;-63
2023/05/15 05:30:49;;;;;;;24.02;5.30;;;27.80;42.30;;;;;;5053994;28;20050;-66
2023/05/15 05:33:15;;;;;;;24.88;5.60;;;27.80;42.40;;;;;;5047108;28;20060;-65
2023/05/15 05:35:42;;;;;;;21.33;5.00;;;27.80;42.50;;;;;;5048428;28;20461;-66
2023/05/15 05:38:08;;;;;;;25.75;5.07;;;27.80;42.50;;;;;;5053066;28;20051;-66
2023/05/15 05:40:36;;;;;;;21.63;4.88;;;27.80;42.50;;;;;;5046457;28;20047;-62
2023/05/15 05:43:03;;;;;;;15.15;4.10;;;27.80;42.60;;;;;;5046399;28;20742;-66
2023/05/15 05:45:30;;;;;;;23.05;4.68;;;27.90;42.40;;;;;;5044407;28;20565;-64
2023/05/15 05:47:56;;;;;;;16.98;4.47;;;27.90;42.90;;;;;;5045085;28;20038;-63
2023/05/15 05:50:23;;;;;;;18.23;4.43;;;27.80;42.20;;;;;;5054289;28;20043;-65
2023/05/15 05:52:50;;;;;;;24.10;5.05;;;27.90;42.30;;;;;;5047841;28;20063;-63
2023/05/15 05:55:16;;;;;;;20.33;4.82;;;27.90;42.10;;;;;;5046666;28;20069;-63
2023/05/15 05:57:43;;;;;;;21.20;5.32;;;27.90;41.80;;;;;;5046525;28;20084;-63
2023/05/15 06:00:10;;;;;;;18.92;4.57;;;27.80;41.70;;;;;;5047065;28;20058;-64
2023/05/15 06:02:37;;;;;;;17.05;4.68;;;27.90;41.90;;;;;;5045481;28;20065;-61
2023/05/15 06:05:07;;;;;;;20.40;4.72;;;27.80;41.90;;;;;;5044125;28;20103;-64
2023/05/15 06:07:34;;;;;;;25.45;7.30;;;27.80;42.60;;;;;;5049259;28;20053;-61
2023/05/15 06:10:00;;;;;;;24.38;6.88;;;27.70;43.40;;;;;;5043902;28;20054;-62
2023/05/15 06:12:27;;;;;;;28.58;7.65;;;27.60;44.30;;;;;;5043751;28;20039;-62
2023/05/15 06:14:53;;;;;;;33.17;7.30;;;27.60;44.70;;;;;;5043893;28;20055;-64
2023/05/15 06:17:20;;;;;;;22.88;6.93;;;27.60;45.10;;;;;;5044075;28;20048;-63
2023/05/15 06:19:46;;;;;;;25.50;6.20;;;27.50;45.60;;;;;;5041565;28;20441;-62
2023/05/15 06:22:12;;;;;;;25.50;5.63;;;27.40;46.40;;;;;;5042653;28;20142;-63
2023/05/15 06:24:39;;;;;;;36.95;6.20;;;27.30;47.00;;;;;;5042756;28;20062;-65
2023/05/15 06:27:05;;;;;;;27.33;5.43;;;27.20;47.90;;;;;;5044590;28;20054;-67
2023/05/15 06:29:31;;;;;;;33.13;5.40;;;27.10;48.30;;;;;;5047014;28;20522;-64
2023/05/15 06:31:58;;;;;;;60.00;6.97;;;27.10;48.40;;;;;;5048718;28;21063;-63
2023/05/15 06:34:24;;;;;;;22.13;5.18;;;27.10;49.10;;;;;;5047264;28;20108;-64
2023/05/15 06:36:51;;;;;;;23.33;4.78;;;27.10;49.70;;;;;;5045838;28;20078;-61
2023/05/15 06:39:17;;;;;;;22.88;5.15;;;27.00;50.10;;;;;;5045211;28;20049;-65
2023/05/15 06:41:44;;;;;;;23.40;4.38;;;27.00;50.40;;;;;;5047112;28;20051;-63
2023/05/15 06:44:10;;;;;;;22.63;5.10;;;26.90;50.40;;;;;;5046638;28;20108;-65
2023/05/15 06:46:37;;;;;;;24.77;4.70;;;26.80;50.80;;;;;;5045169;28;20061;-65
2023/05/15 06:49:03;;;;;;;50.45;13.65;;;26.80;51.50;;;;;;5044651;28;20055;-65
2023/05/15 06:51:29;;;;;;;37.88;12.05;;;26.70;51.40;;;;;;5047076;28;20076;-64
2023/05/15 06:53:56;;;;;;;36.65;7.57;;;26.70;51.60;;;;;;5046034;28;20050;-68
2023/05/15 06:56:22;;;;;;;18.55;5.25;;;26.70;51.70;;;;;;5042707;28;20131;-65
2023/05/15 06:58:49;;;;;;;27.20;5.45;;;26.70;51.50;;;;;;5044690;28;20060;-65
2023/05/15 07:01:15;;;;;;;26.83;6.30;;;26.60;51.50;;;;;;5044227;28;20134;-66
2023/05/15 07:03:42;;;;;;;26.98;4.50;;;26.60;51.60;;;;;;5045621;28;20093;-66
2023/05/15 07:06:08;;;;;;;31.02;5.00;;;26.50;51.80;;;;;;5047705;28;20061;-66
2023/05/15 07:08:34;;;;;;;26.00;5.80;;;26.50;52.00;;;;;;5051108;28;20049;-66
2023/05/15 07:11:01;;;;;;;27.30;5.85;;;26.50;52.20;;;;;;5043687;28;20053;-67
2023/05/15 07:13:27;;;;;;;31.90;6.00;;;26.40;52.50;;;;;;5048433;28;20061;-65
2023/05/15 07:15:53;;;;;;;24.50;5.05;;;26.50;53.50;;;;;;5049976;28;20081;-66
2023/05/15 07:18:20;;;;;;;27.10;6.35;;;26.40;53.20;;;;;;5048533;28;20474;-67
2023/05/15 07:20:46;;;;;;;29.23;5.28;;;26.30;53.50;;;;;;5048435;28;20062;-64
2023/05/15 07:23:13;;;;;;;33.40;5.38;;;26.20;53.90;;;;;;5048617;28;20137;-67
2023/05/15 07:25:39;;;;;;;27.10;5.82;;;26.20;54.30;;;;;;5049531;28;20058;-63
2023/05/15 07:28:05;;;;;;;18.98;4.90;;;26.10;54.70;;;;;;5050713;28;20072;-61
2023/05/15 07:30:32;;;;;;;25.27;5.55;;;26.10;55.10;;;;;;5049812;28;20526;-61
2023/05/15 07:32:58;;;;;;;37.78;6.03;;;26.00;55.20;;;;;;5050236;28;20098;-64
2023/05/15 07:35:25;;;;;;;26.73;5.18;;;25.90;55.80;;;;;;5049561;28;20457;-64
2023/05/15 07:37:51;;;;;;;24.73;5.47;;;25.90;56.10;;;;;;5048323;28;20092;-66
2023/05/15 07:40:18;;;;;;;29.15;5.85;;;25.80;56.70;;;;;;5049050;28;20084;-65
2023/05/15 07:42:44;;;;;;;28.23;5.68;;;25.80;57.00;;;;;;5049291;28;20052;-64
2023/05/15 07:45:11;;;;;;;30.73;6.53;;;25.70;57.30;;;;;;5048619;28;20537;-65
2023/05/15 07:47:37;;;;;;;23.88;5.85;;;25.70;57.70;;;;;;5047144;28;20453;-64
2023/05/15 07:50:04;;;;;;;24.88;5.28;;;25.70;58.60;;;;;;5046283;28;20524;-66
2023/05/15 07:52:30;;;;;;;26.15;5.03;;;25.60;58.90;;;;;;5049157;28;20112;-64
2023/05/15 07:54:57;;;;;;;21.80;4.93;;;25.60;59.50;;;;;;5046988;28;20121;-65
2023/05/15 07:57:24;;;;;;;25.90;5.38;;;25.50;59.70;;;;;;5049423;28;20093;-64
2023/05/15 07:59:50;;;;;;;25.98;5.28;;;25.50;59.70;;;;;;5047746;28;20075;-64
2023/05/15 08:02:17;;;;;;;20.20;5.00;;;25.50;60.00;;;;;;5047759;28;20464;-64
2023/05/15 08:04:43;;;;;;;27.10;6.20;;;25.40;60.80;;;;;;5049928;28;20098;-64
2023/05/15 08:07:09;;;;;;;32.60;5.30;;;25.40;61.10;;;;;;5048301;28;20076;-63
2023/05/15 08:09:36;;;;;;;27.50;5.90;;;25.00;61.80;;;;;;5049003;28;20152;-63
2023/05/15 08:12:16;;;;;;;27.75;5.90;;;24.70;63.80;;;;;;5047749;28;20055;-66
2023/05/15 08:14:43;;;;;;;24.80;5.72;;;24.60;66.30;;;;;;5047233;28;20062;-66
2023/05/15 08:17:09;;;;;;;32.70;5.80;;;24.40;68.50;;;;;;5046554;28;20276;-66
2023/05/15 08:19:35;;;;;;;29.67;5.43;;;24.30;69.60;;;;;;5052639;28;20089;-64
2023/05/15 08:22:02;;;;;;;29.15;6.05;;;24.30;70.30;;;;;;5050752;28;20075;-65
2023/05/15 08:24:28;;;;;;;24.38;5.50;;;24.20;71.60;;;;;;5048213;28;20199;-65
2023/05/15 08:26:55;;;;;;;21.95;5.32;;;24.30;71.40;;;;;;5048693;28;20071;-65
2023/05/15 08:29:21;;;;;;;30.25;5.30;;;24.30;71.00;;;;;;5055722;28;20063;-66
2023/05/15 08:31:47;;;;;;;24.83;4.78;;;24.20;70.20;;;;;;5049582;28;20420;-65
2023/05/15 08:34:14;;;;;;;19.13;4.90;;;24.20;69.20;;;;;;5049645;28;20068;-67
2023/05/15 08:36:40;;;;;;;20.60;5.18;;;24.20;67.90;;;;;;5048970;28;20062;-62
2023/05/15 08:39:08;;;;;;;22.25;5.32;;;24.20;66.10;;;;;;5048145;28;20123;-63
2023/05/15 08:41:45;;;;;;;24.45;5.50;;;24.20;64.10;;;;;;5048479;28;20088;-65
2023/05/15 08:44:13;;;;;;;26.73;5.45;;;24.20;62.90;;;;;;5051648;28;20081;-67
2023/05/15 08:46:40;;;;;;;16.85;5.25;;;24.20;61.80;;;;;;5050803;28;20071;-67
2023/05/15 08:49:27;;;;;;;17.67;4.50;;;24.20;62.10;;;;;;5048187;28;20060;-63
2023/05/15 08:51:55;;;;;;;21.92;4.47;;;24.10;60.70;;;;;;5050180;28;20184;-67
2023/05/15 08:54:22;;;;;;;22.40;4.43;;;24.20;60.90;;;;;;5049969;28;20077;-66
2023/05/15 08:56:48;;;;;;;21.83;4.78;;;24.10;61.30;;;;;;5050504;28;20079;-67
2023/05/15 08:59:15;;;;;;;20.70;4.95;;;24.00;61.20;;;;;;5047925;28;20773;-66
2023/05/15 09:01:42;;;;;;;22.33;5.30;;;24.10;61.30;;;;;;5057288;28;20080;-66
2023/05/15 09:04:08;;;;;;;28.05;6.13;;;24.00;61.30;;;;;;5052770;28;20108;-67
2023/05/15 09:06:36;;;;;;;19.30;4.53;;;24.00;60.80;;;;;;5051001;28;20081;-67
2023/05/15 09:09:04;;;;;;;22.70;4.32;;;24.00;60.80;;;;;;5051239;28;20548;-67
2023/05/15 09:11:32;;;;;;;23.60;5.05;;;24.00;60.10;;;;;;5052756;28;20061;-65
2023/05/15 09:13:59;;;;;;;76.03;7.00;;;23.90;59.90;;;;;;5055272;28;20151;-67
2023/05/15 09:16:26;;;;;;;16.13;4.18;;;23.90;59.50;;;;;;5047336;28;20085;-68
2023/05/15 09:18:53;;;;;;;18.40;4.70;;;23.90;59.00;;;;;;5052328;28;20482;-68
2023/05/15 09:21:25;;;;;;;22.92;4.53;;;23.90;58.30;;;;;;5047535;28;20099;-65
2023/05/15 09:24:14;;;;;;;16.60;4.35;;;23.90;57.90;;;;;;5048115;28;20818;-64
2023/05/15 09:26:42;;;;;;;20.67;4.30;;;23.90;57.90;;;;;;5049702;28;20143;-65
2023/05/15 09:29:08;;;;;;;840.33;46.03;;;23.80;57.30;;;;;;5045565;28;20073;-65
2023/05/15 09:31:35;;;;;;;21.65;4.60;;;23.90;57.20;;;;;;5049948;28;20089;-67
2023/05/15 09:34:03;;;;;;;14.25;4.50;;;24.00;56.90;;;;;;5048969;28;20067;-64
2023/05/15 09:36:31;;;;;;;15.75;4.13;;;24.00;56.70;;;;;;5049459;28;20063;-65
2023/05/15 09:39:01;;;;;;;24.15;4.13;;;23.90;56.80;;;;;;5049414;28;20064;-66
2023/05/15 09:41:28;;;;;;;23.90;4.57;;;24.00;56.90;;;;;;5046607;28;20536;-67
2023/05/15 09:43:55;;;;;;;23.05;4.20;;;23.90;56.90;;;;;;5048397;28;20078;-65
2023/05/15 09:46:25;;;;;;;22.00;4.43;;;23.90;57.30;;;;;;5048633;28;20072;-66
2023/05/15 09:48:55;;;;;;;17.15;4.28;;;23.90;57.50;;;;;;5046406;28;20060;-65
2023/05/15 09:51:22;;;;;;;17.80;4.18;;;24.00;57.90;;;;;;5045295;28;20063;-64
2023/05/15 09:53:50;;;;;;;21.38;4.82;;;23.90;58.50;;;;;;5046585;28;20066;-65
2023/05/15 09:56:17;;;;;;;19.90;4.88;;;24.00;59.20;;;;;;5049165;28;20524;-65
2023/05/15 09:59:03;;;;;;;22.38;4.60;;;24.00;59.80;;;;;;5047552;28;20072;-65
2023/05/15 10:01:29;;;;;;;23.13;5.85;;;24.00;60.10;;;;;;5051877;28;20080;-69
2023/05/15 10:04:00;;;;;;;22.95;7.03;;;24.00;60.50;;;;;;5050787;28;20095;-65
2023/05/15 10:06:33;;;;;;;21.88;6.72;;;23.90;61.50;;;;;;5049192;28;20062;-66
2023/05/15 10:09:02;;;;;;;20.65;7.20;;;23.90;62.90;;;;;;5048940;28;20531;-65
2023/05/15 10:11:32;;;;;;;23.70;6.97;;;23.90;63.40;;;;;;5047156;28;20443;-67
2023/05/15 10:13:59;;;;;;;24.23;6.55;;;23.80;63.90;;;;;;5047697;28;20061;-68
2023/05/15 10:16:28;;;;;;;24.55;6.95;;;23.80;64.30;;;;;;5047752;28;20086;-68
2023/05/15 10:18:56;;;;;;;20.98;7.32;;;23.80;64.40;;;;;;5047132;28;20154;-68
2023/05/15 10:21:24;;;;;;;23.40;7.88;;;23.80;64.50;;;;;;5045725;28;20067;-66
2023/05/15 10:23:52;;;;;;;31.33;8.15;;;23.90;64.80;;;;;;5045260;28;20085;-67
2023/05/15 10:26:30;;;;;;;28.23;8.05;;;23.90;64.90;;;;;;5046396;28;20071;-67
2023/05/15 10:28:57;;;;;;;25.23;7.68;;;23.80;64.90;;;;;;5044974;28;20064;-68
2023/05/15 10:31:24;;;;;;;25.67;7.65;;;23.70;65.30;;;;;;5046608;28;20071;-69
2023/05/15 10:33:52;;;;;;;27.08;6.93;;;23.70;65.60;;;;;;5045657;28;20064;-67
2023/05/15 10:36:19;;;;;;;23.02;8.13;;;23.70;65.80;;;;;;5047689;28;20069;-66
2023/05/15 10:38:47;;;;;;;25.15;6.38;;;23.70;66.00;;;;;;5045538;28;20070;-65
2023/05/15 10:41:15;;;;;;;25.30;6.82;;;23.70;65.90;;;;;;5051664;28;20156;-65
2023/05/15 10:43:42;;;;;;;28.05;6.70;;;23.70;66.20;;;;;;5050320;28;20086;-66
2023/05/15 10:46:10;;;;;;;19.48;6.05;;;23.70;66.20;;;;;;5049289;28;20127;-66
2023/05/15 10:48:37;;;;;;;20.42;6.70;;;23.60;67.50;;;;;;5050601;28;20060;-68
2023/05/15 10:51:03;;;;;;;21.40;5.72;;;23.40;67.70;;;;;;5051652;28;20068;-66
2023/05/15 10:53:32;;;;;;;22.17;5.60;;;23.40;68.10;;;;;;5049306;28;20094;-67
2023/05/15 10:55:58;;;;;;;18.13;4.57;;;23.40;69.20;;;;;;5048733;28;20073;-66
2023/05/15 10:58:25;;;;;;;21.27;4.75;;;23.30;70.70;;;;;;5052236;28;20175;-68
2023/05/15 11:00:51;;;;;;;17.50;4.75;;;23.30;73.60;;;;;;5050272;28;20557;-68
2023/05/15 11:03:36;;;;;;;18.48;4.88;;;23.30;73.90;;;;;;5049518;28;20114;-66
2023/05/15 11:06:15;;;;;;;20.10;5.57;;;23.30;74.80;;;;;;5050615;28;20098;-66
2023/05/15 11:08:43;;;;;;;23.25;4.82;;;23.20;75.50;;;;;;5048040;28;20520;-71
2023/05/15 11:11:48;;;;;;;15.20;4.75;;;23.10;76.80;;;;;;5051552;28;20075;-67
2023/05/15 11:14:14;;;;;;;16.67;4.18;;;23.10;77.20;;;;;;5050948;28;20071;-67
2023/05/15 11:16:53;;;;;;;16.08;4.53;;;23.10;77.70;;;;;;5047876;28;20062;-68
2023/05/15 11:19:30;;;;;;;22.45;4.05;;;23.20;78.20;;;;;;5047430;28;20073;-68
2023/05/15 11:21:57;;;;;;;16.63;4.22;;;23.20;79.10;;;;;;5048027;28;20586;-67
2023/05/15 11:24:52;;;;;;;21.92;4.32;;;23.10;79.80;;;;;;5053693;28;20171;-66
2023/05/15 11:27:25;;;;;;;23.92;4.63;;;23.00;80.40;;;;;;5050510;28;20088;-68
2023/05/15 11:30:04;;;;;;;18.45;4.55;;;22.90;82.30;;;;;;5050449;28;20077;-65
2023/05/15 11:32:46;;;;;;;27.05;5.07;;;22.80;82.80;;;;;;5051134;28;20435;-67
2023/05/15 11:35:31;;;;;;;17.50;4.18;;;22.80;83.20;;;;;;5051911;28;20135;-65
2023/05/15 11:38:10;;;;;;;17.42;4.90;;;22.90;84.10;;;;;;5051912;28;20591;-66
2023/05/15 11:40:54;;;;;;;18.00;5.22;;;22.80;84.50;;;;;;5048596;28;20098;-68
2023/05/15 11:43:28;;;;;;;19.95;5.35;;;22.70;86.40;;;;;;5053437;28;20099;-67
2023/05/15 11:46:02;;;;;;;19.33;5.38;;;22.60;87.00;;;;;;5051141;28;20060;-67
2023/05/15 11:48:33;;;;;;;20.67;4.80;;;22.60;87.90;;;;;;5052616;28;20602;-67
2023/05/15 11:51:04;;;;;;;23.05;6.22;;;22.70;88.20;;;;;;5050417;28;20156;-67
2023/05/15 11:53:32;;;;;;;23.45;5.47;;;22.70;88.50;;;;;;5048440;28;20076;-67
2023/05/15 11:55:59;;;;;;;24.65;5.20;;;22.60;88.90;;;;;;5051144;28;20075;-66
2023/05/15 11:58:26;;;;;;;22.38;5.35;;;22.60;89.10;;;;;;5048914;28;20074;-62
2023/05/15 12:00:56;;;;;;;25.02;4.93;;;22.70;89.50;;;;;;5048821;28;20068;-64
2023/05/15 12:03:27;;;;;;;19.92;5.28;;;22.60;89.90;;;;;;5051002;28;20196;-64
2023/05/15 12:05:53;;;;;;;20.25;5.10;;;22.50;89.50;;;;;;5050095;28;20594;-64
2023/05/15 12:08:20;;;;;;;20.35;4.75;;;22.60;89.40;;;;;;5058672;28;20092;-68
2023/05/15 12:10:47;;;;;;;19.40;4.88;;;22.50;88.80;;;;;;5052334;28;20153;-65
2023/05/15 12:13:16;;;;;;;15.95;4.05;;;22.50;87.30;;;;;;5050418;28;20073;-64
2023/05/15 12:15:44;;;;;;;22.92;4.72;;;22.50;86.00;;;;;;5047885;28;20068;-67
2023/05/15 12:18:11;;;;;;;21.92;4.70;;;22.40;84.20;;;;;;5048212;28;20169;-64
2023/05/15 12:20:39;;;;;;;17.77;4.53;;;22.30;83.50;;;;;;5048950;28;20060;-64
2023/05/15 12:23:07;;;;;;;17.77;3.60;;;22.30;82.20;;;;;;5047525;28;20076;-64
2023/05/15 12:25:35;;;;;;;15.65;4.20;;;22.30;82.10;;;;;;5049229;28;20204;-62
2023/05/15 12:28:04;;;;;;;24.92;4.60;;;22.20;81.50;;;;;;5051639;28;21040;-64
2023/05/15 12:30:32;;;;;;;19.67;4.63;;;22.20;81.80;;;;;;5049258;28;20082;-61
2023/05/15 12:33:04;;;;;;;13.27;3.55;;;22.20;80.40;;;;;;5050600;28;20543;-67
2023/05/15 12:35:33;;;;;;;13.30;3.90;;;22.20;80.30;;;;;;5050877;28;20073;-66
2023/05/15 12:38:04;;;;;;;20.70;5.00;;;22.20;80.60;;;;;;5045001;28;20065;-65
2023/05/15 12:40:33;;;;;;;17.63;4.35;;;22.20;81.60;;;;;;5047454;28;20069;-63
2023/05/15 12:43:05;;;;;;;14.60;3.70;;;22.30;80.60;;;;;;5050278;28;20552;-66
2023/05/15 12:45:34;;;;;;;18.85;3.88;;;22.30;80.40;;;;;;5046949;28;20114;-62